YKX weather

Kirkland Lake Airport
Kirkland Lake, Ontario, Canada

Public forecast

Using degrees Celsius for public forecast. Weather courtesy of forecast.io.

METAR (pilot weather report)

Closest report is Earlton (Timiskaming Regional) Airport, 31.3 nm (57.9 km) S. Retrieved 2019/05/23 12:00 UTC (13 minutes ago):

CYXR 231200Z AUTO 12009KT 9SM BKN034 09/07 A2989 RMK SLP129

TAF (pilot weather forecast)

Closest forecast is Earlton (Timiskaming Regional) Airport, 31.3 nm (57.9 km) S. Retrieved 2019/05/23 12:42 UTC (0 seconds ago):

TAF TAF CYXR 231138Z 2312/2324 13010KT P6SM BKN025 OVC080 TEMPO 2312/2315 3SM -SHRA BR BKN020 OVC080 FM231500 14008KT P6SM SCT006 OVC025 TEMPO 2315/2320 2SM -RA -DZ BR BKN006 OVC015 PROB30 2315/2320 2SM TSRA BR BKN006 OVC015CB FM232000 35010KT 2SM -RA -DZ BR OVC008 TEMPO 2320/2324 6SM BR OVC015 RMK FCST BASED ON AUTO OBS. NXT FCST BY 231800Z